Nearby METAR Reports

 

KLXT - Lees Summit Muni, Missouri, USA
Distance from station: E 5mi, 9km
Updated: Tue, 22-May-2018 11:53am CDT
Clear
Clear
 Wind from calm
Wind: Calm
Temperature: 81°F , 27°C
Heat Index: 83°F , 28°C
Dew Point: 64°F , 18°C
Humidity: 58%
Barometer: 30.07 inHg , 1018.3 hPa
Clouds: Clear
Visibility: 10 miles , 16 km
2018/05/22 16:53 KLXT 221653Z AUTO 00000KT 10SM CLR 27/18 A3007 RMK AO2 SLP177 T02670178
KMKC - Kansas City/Dntn, Missouri, USA
Distance from station: NW 12mi, 19km
Updated: Tue, 22-May-2018 11:54am CDT
Clear
Clear
 Wind from varies
Wind: varies 3 mph , 6 km/h
Temperature: 81°F , 27°C
Heat Index: 82°F , 28°C
Dew Point: 63°F , 17°C
Humidity: 54%
Barometer: 30.05 inHg , 1017.6 hPa
Clouds: Clear
Visibility: 10 miles , 16 km
2018/05/22 16:54 KMKC 221654Z VRB03KT 10SM CLR 27/17 A3005 RMK AO2 SLP168 T02720172
 
KIXD - Olathe/Industria, Kansas, USA
Distance from station: WSW 25mi, 41km
Updated: Tue, 22-May-2018 11:53am CDT
Clear
Clear
 Wind from varies
Wind: varies 6 mph , 9 km/h
Temperature: 81°F , 27°C
Heat Index: 83°F , 28°C
Dew Point: 64°F , 18°C
Humidity: 58%
Barometer: 30.06 inHg , 1017.9 hPa
Clouds: Clear
Visibility: 10 miles , 16 km
2018/05/22 16:53 KIXD 221653Z VRB05KT 10SM CLR 27/18 A3006 RMK AO2 SLP170 T02670183
KMCI - Kansas City/Intl, Missouri, USA
Distance from station: NW 26mi, 42km
Updated: Tue, 22-May-2018 11:53am CDT
Partly cloudy
Partly cloudy
 Wind from varies
Wind: varies 3 mph , 6 km/h
Temperature: 81°F , 27°C
Heat Index: 83°F , 28°C
Dew Point: 64°F , 18°C
Humidity: 58%
Barometer: 30.07 inHg , 1018.3 hPa
Clouds: Partly cloudy
Visibility: 10 miles , 16 km
Cloud details: Few Clouds 3000 ft
Partly cloudy 25000 ft
2018/05/22 16:53 KMCI 221653Z VRB03KT 10SM FEW030 SCT250 27/18 A3007 RMK AO2 SLP172 T02670183
 
KRCM - Warrensburg Skyh, Missouri, USA
Distance from station: ESE 38mi, 62km
Updated: Tue, 22-May-2018 12:15pm CDT
Clear
Clear
 Wind from S
Wind: S 3 mph , 6 km/h
Temperature: 79°F , 26°C
Dew Point: 61°F , 16°C
Humidity: 54%
Barometer: 30.08 inHg , 1018.6 hPa
Clouds: Clear
Visibility: 10 miles , 16 km
2018/05/22 17:15 KRCM 221715Z AUTO 18003KT 10SM CLR 26/16 A3008 RMK AO2
KLWC - Lawrence, Kansas, USA
Distance from station: W 40mi, 65km
Updated: Tue, 22-May-2018 11:52am CDT
Clear
Clear
 Wind from calm
Wind: Calm
Temperature: 81°F , 27°C
Heat Index: 83°F , 28°C
Dew Point: 66°F , 19°C
Humidity: 62%
Barometer: 30.04 inHg , 1017.3 hPa
Clouds: Clear
Visibility: 10 miles , 16 km
2018/05/22 16:52 KLWC 221652Z AUTO 00000KT 10SM CLR 27/19 A3004 RMK AO2 SLP167 T02720189
 
KSZL - Whiteman Afb, Missouri, USA
Distance from station: ESE 53mi, 86km
Updated: Tue, 22-May-2018 11:56am CDT
Partly cloudy
Partly cloudy
 Wind from ESE
Wind: ESE 3 mph , 6 km/h
Temperature: 77°F , 25°C
Dew Point: 63°F , 17°C
Humidity: 61%
Barometer: 30.04 inHg , 1017.3 hPa
Clouds: Partly cloudy
Visibility: 10 miles , 16 km
Cloud details: Partly cloudy 25000 ft
2018/05/22 16:56 KSZL 221656Z 11003KT 10SM SCT250 25/17 A3004 RMK AO2A SLP170 T02530167 $
KSTJ - St. Joseph, Missouri, USA
Distance from station: NNW 59mi, 95km
Updated: Tue, 22-May-2018 11:53am CDT
Few Clouds
Few Clouds
 Wind from SW
Wind: SW 6 mph , 9 km/h
Temperature: 81°F , 27°C
Heat Index: 83°F , 28°C
Dew Point: 64°F , 18°C
Humidity: 58%
Barometer: 30.06 inHg , 1017.9 hPa
Clouds: Few Clouds
Visibility: 10 miles , 16 km
Cloud details: Few Clouds 4000 ft
2018/05/22 16:53 KSTJ 221653Z 22005KT 10SM FEW040 27/18 A3006 RMK AO2 SLP171 T02720178
 
KGLY - Clinton, Missouri, USA
Distance from station: SE 61mi, 98km
Updated: Tue, 22-May-2018 12:15pm CDT
Clear
Clear
 Wind from NE
Wind: NE 3 mph , 6 km/h
Temperature: 79°F , 26°C
Dew Point: 64°F , 18°C
Humidity: 61%
Barometer: 30.08 inHg , 1018.6 hPa
Clouds: Clear
Visibility: 10 miles , 16 km
2018/05/22 17:15 KGLY 221715Z AUTO 05003KT 10SM CLR 26/18 A3008 RMK AO2
KFOE - Topeka/Forbes, Kansas, USA
Distance from station: W 64mi, 103km
Updated: Tue, 22-May-2018 11:53am CDT
Clear
Clear
 Wind from SSE
Wind: SSE 8 mph , 13 km/h
Temperature: 82°F , 28°C
Heat Index: 84°F , 29°C
Dew Point: 66°F , 19°C
Humidity: 58%
Barometer: 30.04 inHg , 1017.3 hPa
Clouds: Clear
Visibility: 10 miles , 16 km
2018/05/22 16:53 KFOE 221653Z 16007KT 10SM CLR 28/19 A3004 RMK AO2 SLP162 T02780194
 
KDMO - Sedalia, Missouri, USA
Distance from station: ESE 72mi, 116km
Updated: Tue, 22-May-2018 11:53am CDT
Clear
Clear
 Wind from E
Wind: E 6 mph , 9 km/h
Temperature: 77°F , 25°C
Dew Point: 64°F , 18°C
Humidity: 65%
Barometer: 30.10 inHg , 1019.3 hPa
Clouds: Clear
Visibility: 10 miles , 16 km
2018/05/22 16:53 KDMO 221653Z AUTO 10005KT 10SM CLR 25/18 A3010 RMK AO2 SLP185 T02500183
KCDJ - Chillicothe, Missouri, USA
Distance from station: NE 74mi, 120km
Updated: Tue, 22-May-2018 11:52am CDT

 Wind from S
Wind: S 6 mph , 9 km/h
Temperature: 79°F , 26°C
Dew Point: 63°F , 17°C
Humidity: 58%
Barometer: 30.09 inHg , 1019 hPa
2018/05/22 16:52 KCDJ 221652Z AUTO 17005KT 26/17 A3009 RMK AO1 SLP179 T02610167
 
KFNB - Falls City/Brenn, Nebraska, USA
Distance from station: NW 96mi, 154km
Updated: Tue, 22-May-2018 11:53am CDT
Overcast
Overcast
 Wind from SSE
Wind: SSE 6 mph , 9 km/h
Temperature: 81°F , 27°C
Heat Index: 82°F , 28°C
Dew Point: 63°F , 17°C
Humidity: 54%
Barometer: 30.03 inHg , 1016.9 hPa
Clouds: Overcast
Visibility: 10 miles , 16 km
Cloud details: Overcast 9000 ft
2018/05/22 16:53 KFNB 221653Z AUTO 16005KT 10SM OVC090 27/17 A3003 RMK AO2 SLP163 T02670167
KVER - Boonville, Missouri, USA
Distance from station: E 96mi, 154km
Updated: Tue, 22-May-2018 11:55am CDT
Clear
Clear
 Wind from calm
Wind: Calm
Temperature: 77°F , 25°C
Dew Point: 63°F , 17°C
Humidity: 61%
Barometer: 30.09 inHg , 1019 hPa
Clouds: Clear
Visibility: 10 miles , 16 km
2018/05/22 16:55 KVER 221655Z AUTO 00000KT 10SM CLR 25/17 A3009 RMK AO2 T02500166